sensor_id;sensor_type;location;lat;lon;timestamp;P1;durP1;ratioP1;P2;durP2;ratioP2
52294;SDS011;38243;53.212;6.574;2023-02-28T00:00:47;2.90;;;1.00;;
52294;SDS011;38243;53.212;6.574;2023-02-28T00:03:12;2.08;;;1.00;;
52294;SDS011;38243;53.212;6.574;2023-02-28T00:05:38;2.08;;;0.70;;
52294;SDS011;38243;53.212;6.574;2023-02-28T00:08:04;2.93;;;0.80;;
52294;SDS011;38243;53.212;6.574;2023-02-28T00:10:30;2.90;;;1.02;;
52294;SDS011;38243;53.212;6.574;2023-02-28T00:13:01;1.30;;;0.70;;
52294;SDS011;38243;53.212;6.574;2023-02-28T00:15:29;1.60;;;0.90;;
52294;SDS011;38243;53.212;6.574;2023-02-28T00:17:56;3.73;;;1.00;;
52294;SDS011;38243;53.212;6.574;2023-02-28T00:20:22;1.05;;;0.70;;
52294;SDS011;38243;53.212;6.574;2023-02-28T00:22:49;1.95;;;0.90;;
52294;SDS011;38243;53.212;6.574;2023-02-28T00:25:18;1.63;;;0.70;;
52294;SDS011;38243;53.212;6.574;2023-02-28T00:27:46;1.95;;;0.73;;
52294;SDS011;38243;53.212;6.574;2023-02-28T00:30:19;2.77;;;0.83;;
52294;SDS011;38243;53.212;6.574;2023-02-28T00:32:46;2.38;;;0.70;;
52294;SDS011;38243;53.212;6.574;2023-02-28T00:35:13;1.75;;;0.70;;
52294;SDS011;38243;53.212;6.574;2023-02-28T00:37:39;1.42;;;0.70;;
52294;SDS011;38243;53.212;6.574;2023-02-28T00:40:05;2.23;;;0.90;;
52294;SDS011;38243;53.212;6.574;2023-02-28T00:42:32;1.90;;;0.90;;
52294;SDS011;38243;53.212;6.574;2023-02-28T00:44:59;2.20;;;0.95;;
52294;SDS011;38243;53.212;6.574;2023-02-28T00:47:25;1.25;;;0.60;;
52294;SDS011;38243;53.212;6.574;2023-02-28T00:49:51;1.03;;;0.43;;
52294;SDS011;38243;53.212;6.574;2023-02-28T00:52:16;2.08;;;0.73;;
52294;SDS011;38243;53.212;6.574;2023-02-28T00:54:42;1.90;;;0.80;;
52294;SDS011;38243;53.212;6.574;2023-02-28T00:57:08;2.80;;;0.70;;
52294;SDS011;38243;53.212;6.574;2023-02-28T00:59:34;1.35;;;0.80;;
52294;SDS011;38243;53.212;6.574;2023-02-28T01:02:00;1.85;;;0.70;;
52294;SDS011;38243;53.212;6.574;2023-02-28T01:04:26;1.60;;;0.80;;
52294;SDS011;38243;53.212;6.574;2023-02-28T01:06:51;1.80;;;0.67;;
52294;SDS011;38243;53.212;6.574;2023-02-28T01:09:17;1.98;;;0.80;;
52294;SDS011;38243;53.212;6.574;2023-02-28T01:11:43;2.30;;;0.80;;
52294;SDS011;38243;53.212;6.574;2023-02-28T01:14:11;1.80;;;0.60;;
52294;SDS011;38243;53.212;6.574;2023-02-28T01:16:41;2.70;;;0.70;;
52294;SDS011;38243;53.212;6.574;2023-02-28T01:19:07;1.35;;;0.77;;
52294;SDS011;38243;53.212;6.574;2023-02-28T01:21:33;1.00;;;0.53;;
52294;SDS011;38243;53.212;6.574;2023-02-28T01:23:59;2.78;;;0.80;;
52294;SDS011;38243;53.212;6.574;2023-02-28T01:26:26;4.22;;;0.80;;
52294;SDS011;38243;53.212;6.574;2023-02-28T01:28:52;1.65;;;0.80;;
52294;SDS011;38243;53.212;6.574;2023-02-28T01:31:19;1.95;;;0.57;;
52294;SDS011;38243;53.212;6.574;2023-02-28T01:33:46;2.70;;;0.70;;
52294;SDS011;38243;53.212;6.574;2023-02-28T01:36:16;0.90;;;0.60;;
52294;SDS011;38243;53.212;6.574;2023-02-28T01:38:44;1.20;;;0.60;;
52294;SDS011;38243;53.212;6.574;2023-02-28T01:41:14;1.77;;;0.57;;
52294;SDS011;38243;53.212;6.574;2023-02-28T01:46:09;1.30;;;0.70;;
52294;SDS011;38243;53.212;6.574;2023-02-28T01:48:37;2.28;;;0.70;;
52294;SDS011;38243;53.212;6.574;2023-02-28T01:51:07;2.17;;;0.70;;
52294;SDS011;38243;53.212;6.574;2023-02-28T01:53:42;1.85;;;0.60;;
52294;SDS011;38243;53.212;6.574;2023-02-28T01:56:11;1.80;;;0.73;;
52294;SDS011;38243;53.212;6.574;2023-02-28T01:58:50;1.37;;;0.50;;
52294;SDS011;38243;53.212;6.574;2023-02-28T02:01:17;1.52;;;0.60;;
52294;SDS011;38243;53.212;6.574;2023-02-28T02:03:53;1.45;;;0.80;;
52294;SDS011;38243;53.212;6.574;2023-02-28T02:06:23;1.93;;;0.50;;
52294;SDS011;38243;53.212;6.574;2023-02-28T02:08:52;1.40;;;0.60;;
52294;SDS011;38243;53.212;6.574;2023-02-28T02:11:19;1.45;;;0.60;;
52294;SDS011;38243;53.212;6.574;2023-02-28T02:13:56;1.70;;;0.70;;
52294;SDS011;38243;53.212;6.574;2023-02-28T02:30:44;1.63;;;0.57;;
52294;SDS011;38243;53.212;6.574;2023-02-28T02:36:18;0.90;;;0.50;;
52294;SDS011;38243;53.212;6.574;2023-02-28T02:38:56;1.45;;;0.60;;
52294;SDS011;38243;53.212;6.574;2023-02-28T02:44:50;2.50;;;0.70;;
52294;SDS011;38243;53.212;6.574;2023-02-28T02:47:08;1.55;;;0.47;;
52294;SDS011;38243;53.212;6.574;2023-02-28T02:49:38;1.60;;;0.60;;
52294;SDS011;38243;53.212;6.574;2023-02-28T02:52:07;1.52;;;0.60;;
52294;SDS011;38243;53.212;6.574;2023-02-28T02:54:37;1.38;;;0.50;;
52294;SDS011;38243;53.212;6.574;2023-02-28T02:57:07;2.47;;;0.70;;
52294;SDS011;38243;53.212;6.574;2023-02-28T02:59:38;1.55;;;0.50;;
52294;SDS011;38243;53.212;6.574;2023-02-28T03:02:06;1.60;;;0.47;;
52294;SDS011;38243;53.212;6.574;2023-02-28T03:04:38;1.10;;;0.40;;
52294;SDS011;38243;53.212;6.574;2023-02-28T03:07:08;1.20;;;0.50;;
52294;SDS011;38243;53.212;6.574;2023-02-28T03:09:34;1.27;;;0.50;;
52294;SDS011;38243;53.212;6.574;2023-02-28T03:12:03;1.07;;;0.50;;
52294;SDS011;38243;53.212;6.574;2023-02-28T03:20:40;1.70;;;0.70;;
52294;SDS011;38243;53.212;6.574;2023-02-28T03:23:21;2.07;;;0.50;;
52294;SDS011;38243;53.212;6.574;2023-02-28T03:25:54;1.83;;;0.60;;
52294;SDS011;38243;53.212;6.574;2023-02-28T03:33:44;1.70;;;0.73;;
52294;SDS011;38243;53.212;6.574;2023-02-28T03:36:45;2.45;;;0.90;;
52294;SDS011;38243;53.212;6.574;2023-02-28T03:39:19;1.40;;;0.73;;
52294;SDS011;38243;53.212;6.574;2023-02-28T03:41:53;2.15;;;1.00;;
52294;SDS011;38243;53.212;6.574;2023-02-28T03:44:22;2.00;;;0.80;;
52294;SDS011;38243;53.212;6.574;2023-02-28T03:47:10;2.22;;;0.90;;
52294;SDS011;38243;53.212;6.574;2023-02-28T03:49:45;1.48;;;1.00;;
52294;SDS011;38243;53.212;6.574;2023-02-28T03:52:33;2.17;;;1.02;;
52294;SDS011;38243;53.212;6.574;2023-02-28T03:55:09;1.27;;;0.80;;
52294;SDS011;38243;53.212;6.574;2023-02-28T03:57:53;3.10;;;1.05;;
52294;SDS011;38243;53.212;6.574;2023-02-28T04:00:31;2.75;;;1.30;;
52294;SDS011;38243;53.212;6.574;2023-02-28T04:03:05;2.03;;;0.82;;
52294;SDS011;38243;53.212;6.574;2023-02-28T04:05:31;2.30;;;1.00;;
52294;SDS011;38243;53.212;6.574;2023-02-28T04:08:05;1.90;;;0.55;;
52294;SDS011;38243;53.212;6.574;2023-02-28T04:10:32;1.58;;;0.80;;
52294;SDS011;38243;53.212;6.574;2023-02-28T04:12:58;2.30;;;0.80;;
52294;SDS011;38243;53.212;6.574;2023-02-28T04:15:23;2.75;;;1.10;;
52294;SDS011;38243;53.212;6.574;2023-02-28T04:17:49;1.25;;;0.70;;
52294;SDS011;38243;53.212;6.574;2023-02-28T04:20:16;2.25;;;1.13;;
52294;SDS011;38243;53.212;6.574;2023-02-28T04:22:42;2.03;;;0.95;;
52294;SDS011;38243;53.212;6.574;2023-02-28T04:25:07;1.42;;;0.80;;
52294;SDS011;38243;53.212;6.574;2023-02-28T04:27:33;1.50;;;0.83;;
52294;SDS011;38243;53.212;6.574;2023-02-28T04:30:00;1.30;;;0.80;;
52294;SDS011;38243;53.212;6.574;2023-02-28T04:32:25;1.10;;;0.80;;
52294;SDS011;38243;53.212;6.574;2023-02-28T04:34:51;1.20;;;0.70;;
52294;SDS011;38243;53.212;6.574;2023-02-28T04:37:17;0.97;;;0.53;;
52294;SDS011;38243;53.212;6.574;2023-02-28T04:39:42;1.60;;;0.57;;
52294;SDS011;38243;53.212;6.574;2023-02-28T04:42:08;1.23;;;0.70;;
52294;SDS011;38243;53.212;6.574;2023-02-28T04:44:35;2.85;;;0.77;;
52294;SDS011;38243;53.212;6.574;2023-02-28T04:47:00;0.87;;;0.70;;
52294;SDS011;38243;53.212;6.574;2023-02-28T04:49:26;1.10;;;0.60;;
52294;SDS011;38243;53.212;6.574;2023-02-28T04:51:52;1.80;;;0.65;;
52294;SDS011;38243;53.212;6.574;2023-02-28T04:54:18;1.07;;;0.70;;
52294;SDS011;38243;53.212;6.574;2023-02-28T04:56:44;2.00;;;0.70;;
52294;SDS011;38243;53.212;6.574;2023-02-28T04:59:09;1.63;;;0.77;;
52294;SDS011;38243;53.212;6.574;2023-02-28T05:01:35;0.80;;;0.70;;
52294;SDS011;38243;53.212;6.574;2023-02-28T05:04:02;1.42;;;0.82;;
52294;SDS011;38243;53.212;6.574;2023-02-28T05:06:29;0.90;;;0.60;;
52294;SDS011;38243;53.212;6.574;2023-02-28T05:08:56;1.35;;;0.60;;
52294;SDS011;38243;53.212;6.574;2023-02-28T05:11:23;1.27;;;0.50;;
52294;SDS011;38243;53.212;6.574;2023-02-28T05:14:03;1.10;;;0.63;;
52294;SDS011;38243;53.212;6.574;2023-02-28T05:16:31;0.80;;;0.50;;
52294;SDS011;38243;53.212;6.574;2023-02-28T05:18:57;1.10;;;0.60;;
52294;SDS011;38243;53.212;6.574;2023-02-28T05:23:55;0.82;;;0.65;;
52294;SDS011;38243;53.212;6.574;2023-02-28T05:26:22;0.93;;;0.50;;
52294;SDS011;38243;53.212;6.574;2023-02-28T05:28:48;1.20;;;0.70;;
52294;SDS011;38243;53.212;6.574;2023-02-28T05:31:14;1.10;;;0.60;;
52294;SDS011;38243;53.212;6.574;2023-02-28T05:33:40;0.93;;;0.40;;
52294;SDS011;38243;53.212;6.574;2023-02-28T05:36:06;1.13;;;0.70;;
52294;SDS011;38243;53.212;6.574;2023-02-28T05:38:32;1.77;;;0.60;;
52294;SDS011;38243;53.212;6.574;2023-02-28T05:40:58;1.20;;;0.50;;
52294;SDS011;38243;53.212;6.574;2023-02-28T05:43:24;0.90;;;0.60;;
52294;SDS011;38243;53.212;6.574;2023-02-28T05:45:50;0.73;;;0.50;;
52294;SDS011;38243;53.212;6.574;2023-02-28T05:48:16;1.73;;;1.13;;
52294;SDS011;38243;53.212;6.574;2023-02-28T05:50:46;1.20;;;0.75;;
52294;SDS011;38243;53.212;6.574;2023-02-28T05:53:12;1.20;;;0.77;;
52294;SDS011;38243;53.212;6.574;2023-02-28T05:55:38;1.27;;;0.60;;
52294;SDS011;38243;53.212;6.574;2023-02-28T05:58:06;1.20;;;0.60;;
52294;SDS011;38243;53.212;6.574;2023-02-28T06:00:32;2.40;;;1.00;;
52294;SDS011;38243;53.212;6.574;2023-02-28T06:02:57;1.20;;;0.90;;
52294;SDS011;38243;53.212;6.574;2023-02-28T06:05:29;2.30;;;0.80;;
52294;SDS011;38243;53.212;6.574;2023-02-28T06:07:55;3.63;;;0.90;;
52294;SDS011;38243;53.212;6.574;2023-02-28T06:10:21;3.33;;;1.20;;
52294;SDS011;38243;53.212;6.574;2023-02-28T06:12:46;2.22;;;0.98;;
52294;SDS011;38243;53.212;6.574;2023-02-28T06:15:13;7.32;;;1.40;;
52294;SDS011;38243;53.212;6.574;2023-02-28T06:17:40;3.40;;;1.40;;
52294;SDS011;38243;53.212;6.574;2023-02-28T06:20:07;2.65;;;1.20;;
52294;SDS011;38243;53.212;6.574;2023-02-28T06:22:34;2.60;;;1.13;;
52294;SDS011;38243;53.212;6.574;2023-02-28T06:25:01;2.00;;;1.02;;
52294;SDS011;38243;53.212;6.574;2023-02-28T06:27:28;1.90;;;1.20;;
52294;SDS011;38243;53.212;6.574;2023-02-28T06:29:54;2.22;;;1.27;;
52294;SDS011;38243;53.212;6.574;2023-02-28T06:32:23;2.05;;;1.20;;
52294;SDS011;38243;53.212;6.574;2023-02-28T06:34:49;2.30;;;1.05;;
52294;SDS011;38243;53.212;6.574;2023-02-28T06:37:17;4.37;;;1.20;;
52294;SDS011;38243;53.212;6.574;2023-02-28T06:39:43;1.60;;;1.13;;
52294;SDS011;38243;53.212;6.574;2023-02-28T06:42:09;2.30;;;0.93;;
52294;SDS011;38243;53.212;6.574;2023-02-28T06:44:35;1.60;;;1.23;;
52294;SDS011;38243;53.212;6.574;2023-02-28T06:47:01;3.05;;;1.40;;
52294;SDS011;38243;53.212;6.574;2023-02-28T06:49:29;1.50;;;1.20;;
52294;SDS011;38243;53.212;6.574;2023-02-28T06:51:58;1.95;;;1.25;;
52294;SDS011;38243;53.212;6.574;2023-02-28T06:54:24;2.20;;;1.15;;
52294;SDS011;38243;53.212;6.574;2023-02-28T06:56:50;3.00;;;1.30;;
52294;SDS011;38243;53.212;6.574;2023-02-28T06:59:16;1.95;;;1.30;;
52294;SDS011;38243;53.212;6.574;2023-02-28T07:01:42;1.80;;;1.17;;
52294;SDS011;38243;53.212;6.574;2023-02-28T07:04:08;1.55;;;1.00;;
52294;SDS011;38243;53.212;6.574;2023-02-28T07:06:34;2.08;;;1.10;;
52294;SDS011;38243;53.212;6.574;2023-02-28T07:09:00;1.37;;;0.87;;
52294;SDS011;38243;53.212;6.574;2023-02-28T07:11:26;2.35;;;0.90;;
52294;SDS011;38243;53.212;6.574;2023-02-28T07:13:53;23.45;;;2.17;;
52294;SDS011;38243;53.212;6.574;2023-02-28T07:16:20;14.25;;;1.95;;
52294;SDS011;38243;53.212;6.574;2023-02-28T07:18:47;11.00;;;1.70;;
52294;SDS011;38243;53.212;6.574;2023-02-28T07:21:13;14.20;;;2.53;;
52294;SDS011;38243;53.212;6.574;2023-02-28T07:23:39;11.77;;;2.33;;
52294;SDS011;38243;53.212;6.574;2023-02-28T07:26:06;13.80;;;2.00;;
52294;SDS011;38243;53.212;6.574;2023-02-28T07:28:38;8.83;;;1.63;;
52294;SDS011;38243;53.212;6.574;2023-02-28T07:31:04;10.60;;;1.88;;
52294;SDS011;38243;53.212;6.574;2023-02-28T07:33:31;5.63;;;1.50;;
52294;SDS011;38243;53.212;6.574;2023-02-28T07:36:00;8.32;;;1.70;;
52294;SDS011;38243;53.212;6.574;2023-02-28T07:38:30;3.55;;;1.30;;
52294;SDS011;38243;53.212;6.574;2023-02-28T07:40:58;4.35;;;1.50;;
52294;SDS011;38243;53.212;6.574;2023-02-28T07:43:24;5.00;;;1.60;;
52294;SDS011;38243;53.212;6.574;2023-02-28T07:45:50;2.95;;;1.20;;
52294;SDS011;38243;53.212;6.574;2023-02-28T07:48:16;4.10;;;1.00;;
52294;SDS011;38243;53.212;6.574;2023-02-28T07:50:41;4.40;;;1.30;;
52294;SDS011;38243;53.212;6.574;2023-02-28T07:53:07;3.63;;;1.38;;
52294;SDS011;38243;53.212;6.574;2023-02-28T07:55:33;3.50;;;0.93;;
52294;SDS011;38243;53.212;6.574;2023-02-28T07:57:59;2.00;;;1.20;;
52294;SDS011;38243;53.212;6.574;2023-02-28T08:00:25;2.28;;;1.25;;
52294;SDS011;38243;53.212;6.574;2023-02-28T08:02:50;1.77;;;1.02;;
52294;SDS011;38243;53.212;6.574;2023-02-28T08:05:19;2.13;;;1.10;;
52294;SDS011;38243;53.212;6.574;2023-02-28T08:07:45;2.50;;;1.10;;
52294;SDS011;38243;53.212;6.574;2023-02-28T08:10:12;2.15;;;1.20;;
52294;SDS011;38243;53.212;6.574;2023-02-28T08:12:38;2.28;;;1.13;;
52294;SDS011;38243;53.212;6.574;2023-02-28T08:15:04;2.13;;;1.20;;
52294;SDS011;38243;53.212;6.574;2023-02-28T08:17:30;1.40;;;1.00;;
52294;SDS011;38243;53.212;6.574;2023-02-28T08:19:56;2.10;;;1.00;;
52294;SDS011;38243;53.212;6.574;2023-02-28T08:22:21;2.33;;;1.15;;
52294;SDS011;38243;53.212;6.574;2023-02-28T08:24:47;2.60;;;1.30;;
52294;SDS011;38243;53.212;6.574;2023-02-28T08:27:14;1.63;;;1.00;;
52294;SDS011;38243;53.212;6.574;2023-02-28T08:29:40;1.40;;;0.93;;
52294;SDS011;38243;53.212;6.574;2023-02-28T08:32:06;2.57;;;1.10;;
52294;SDS011;38243;53.212;6.574;2023-02-28T08:34:32;1.63;;;1.10;;
52294;SDS011;38243;53.212;6.574;2023-02-28T08:36:58;1.97;;;1.20;;
52294;SDS011;38243;53.212;6.574;2023-02-28T08:39:24;1.73;;;1.13;;
52294;SDS011;38243;53.212;6.574;2023-02-28T08:41:50;1.55;;;0.98;;
52294;SDS011;38243;53.212;6.574;2023-02-28T08:44:15;1.42;;;0.90;;
52294;SDS011;38243;53.212;6.574;2023-02-28T08:46:41;1.90;;;1.20;;
52294;SDS011;38243;53.212;6.574;2023-02-28T08:49:09;3.38;;;2.20;;
52294;SDS011;38243;53.212;6.574;2023-02-28T08:51:35;2.60;;;1.70;;
52294;SDS011;38243;53.212;6.574;2023-02-28T08:54:01;3.20;;;1.92;;
52294;SDS011;38243;53.212;6.574;2023-02-28T08:56:27;2.50;;;1.80;;
52294;SDS011;38243;53.212;6.574;2023-02-28T08:58:54;2.05;;;1.63;;
52294;SDS011;38243;53.212;6.574;2023-02-28T09:01:22;2.33;;;1.65;;
52294;SDS011;38243;53.212;6.574;2023-02-28T09:03:52;4.38;;;1.98;;
52294;SDS011;38243;53.212;6.574;2023-02-28T09:06:19;4.60;;;1.60;;
52294;SDS011;38243;53.212;6.574;2023-02-28T09:08:47;2.63;;;1.70;;
52294;SDS011;38243;53.212;6.574;2023-02-28T09:11:13;2.75;;;1.73;;
52294;SDS011;38243;53.212;6.574;2023-02-28T09:13:39;2.40;;;1.60;;
52294;SDS011;38243;53.212;6.574;2023-02-28T09:16:06;2.85;;;1.60;;
52294;SDS011;38243;53.212;6.574;2023-02-28T09:18:35;1.57;;;1.00;;
52294;SDS011;38243;53.212;6.574;2023-02-28T09:21:08;1.73;;;1.27;;
52294;SDS011;38243;53.212;6.574;2023-02-28T09:23:40;2.88;;;1.40;;
52294;SDS011;38243;53.212;6.574;2023-02-28T09:26:07;2.60;;;1.70;;
52294;SDS011;38243;53.212;6.574;2023-02-28T09:28:38;2.55;;;1.30;;
52294;SDS011;38243;53.212;6.574;2023-02-28T09:31:03;1.93;;;1.17;;
52294;SDS011;38243;53.212;6.574;2023-02-28T09:33:29;2.05;;;1.40;;
52294;SDS011;38243;53.212;6.574;2023-02-28T09:35:59;2.58;;;1.58;;
52294;SDS011;38243;53.212;6.574;2023-02-28T09:38:26;3.30;;;1.40;;
52294;SDS011;38243;53.212;6.574;2023-02-28T09:40:53;2.47;;;1.25;;
52294;SDS011;38243;53.212;6.574;2023-02-28T09:43:24;3.47;;;1.70;;
52294;SDS011;38243;53.212;6.574;2023-02-28T09:46:05;1.70;;;1.20;;
52294;SDS011;38243;53.212;6.574;2023-02-28T09:48:40;1.80;;;1.50;;
52294;SDS011;38243;53.212;6.574;2023-02-28T09:54:05;2.27;;;1.63;;
52294;SDS011;38243;53.212;6.574;2023-02-28T09:56:33;2.15;;;1.27;;
52294;SDS011;38243;53.212;6.574;2023-02-28T09:59:11;3.47;;;1.65;;
52294;SDS011;38243;53.212;6.574;2023-02-28T10:02:06;6.77;;;4.17;;
52294;SDS011;38243;53.212;6.574;2023-02-28T10:05:08;6.33;;;4.40;;
52294;SDS011;38243;53.212;6.574;2023-02-28T10:07:50;5.10;;;4.43;;
52294;SDS011;38243;53.212;6.574;2023-02-28T10:10:40;5.47;;;4.20;;
52294;SDS011;38243;53.212;6.574;2023-02-28T10:13:17;6.95;;;4.70;;
52294;SDS011;38243;53.212;6.574;2023-02-28T10:15:50;7.70;;;4.40;;
52294;SDS011;38243;53.212;6.574;2023-02-28T10:18:24;5.43;;;4.53;;
52294;SDS011;38243;53.212;6.574;2023-02-28T10:20:53;5.80;;;3.85;;
52294;SDS011;38243;53.212;6.574;2023-02-28T10:23:28;7.13;;;4.40;;
52294;SDS011;38243;53.212;6.574;2023-02-28T10:26:03;7.13;;;4.30;;
52294;SDS011;38243;53.212;6.574;2023-02-28T10:28:36;7.85;;;4.60;;
52294;SDS011;38243;53.212;6.574;2023-02-28T10:31:02;5.68;;;4.05;;
52294;SDS011;38243;53.212;6.574;2023-02-28T10:33:30;5.60;;;3.92;;
52294;SDS011;38243;53.212;6.574;2023-02-28T10:35:57;4.90;;;3.80;;
52294;SDS011;38243;53.212;6.574;2023-02-28T10:38:28;5.30;;;4.00;;
52294;SDS011;38243;53.212;6.574;2023-02-28T10:41:06;5.43;;;4.00;;
52294;SDS011;38243;53.212;6.574;2023-02-28T10:43:33;7.57;;;4.57;;
52294;SDS011;38243;53.212;6.574;2023-02-28T10:46:04;7.00;;;4.30;;
52294;SDS011;38243;53.212;6.574;2023-02-28T10:48:41;5.38;;;3.38;;
52294;SDS011;38243;53.212;6.574;2023-02-28T10:51:11;5.85;;;3.15;;
52294;SDS011;38243;53.212;6.574;2023-02-28T10:53:45;4.67;;;2.53;;
52294;SDS011;38243;53.212;6.574;2023-02-28T10:56:19;6.80;;;3.13;;
52294;SDS011;38243;53.212;6.574;2023-02-28T11:04:17;5.93;;;3.03;;
52294;SDS011;38243;53.212;6.574;2023-02-28T11:07:31;4.30;;;2.90;;
52294;SDS011;38243;53.212;6.574;2023-02-28T11:09:46;3.70;;;2.97;;
52294;SDS011;38243;53.212;6.574;2023-02-28T11:12:59;4.20;;;2.78;;
52294;SDS011;38243;53.212;6.574;2023-02-28T11:15:05;5.13;;;2.88;;
52294;SDS011;38243;53.212;6.574;2023-02-28T11:17:56;3.85;;;2.70;;
52294;SDS011;38243;53.212;6.574;2023-02-28T11:20:30;2.72;;;2.40;;
52294;SDS011;38243;53.212;6.574;2023-02-28T11:22:58;3.63;;;2.60;;
52294;SDS011;38243;53.212;6.574;2023-02-28T11:25:37;3.83;;;2.55;;
52294;SDS011;38243;53.212;6.574;2023-02-28T11:28:05;4.32;;;2.75;;
52294;SDS011;38243;53.212;6.574;2023-02-28T11:30:49;3.63;;;1.90;;
52294;SDS011;38243;53.212;6.574;2023-02-28T11:33:47;3.58;;;1.75;;
52294;SDS011;38243;53.212;6.574;2023-02-28T11:36:23;6.95;;;1.80;;
52294;SDS011;38243;53.212;6.574;2023-02-28T11:38:52;11.05;;;1.40;;
52294;SDS011;38243;53.212;6.574;2023-02-28T11:50:21;2.15;;;1.00;;
52294;SDS011;38243;53.212;6.574;2023-02-28T11:55:54;1.83;;;0.85;;
52294;SDS011;38243;53.212;6.574;2023-02-28T12:28:12;1.90;;;0.90;;
52294;SDS011;38243;53.212;6.574;2023-02-28T12:30:51;1.83;;;0.90;;
52294;SDS011;38243;53.212;6.574;2023-02-28T12:33:26;2.55;;;0.88;;
52294;SDS011;38243;53.212;6.574;2023-02-28T12:35:58;1.50;;;0.90;;
52294;SDS011;38243;53.212;6.574;2023-02-28T12:41:01;2.47;;;1.00;;
52294;SDS011;38243;53.212;6.574;2023-02-28T12:43:32;1.10;;;0.80;;
52294;SDS011;38243;53.212;6.574;2023-02-28T12:46:04;2.08;;;1.02;;
52294;SDS011;38243;53.212;6.574;2023-02-28T12:48:40;1.90;;;1.20;;
52294;SDS011;38243;53.212;6.574;2023-02-28T12:51:09;2.15;;;1.00;;
52294;SDS011;38243;53.212;6.574;2023-02-28T12:58:48;2.60;;;1.00;;
52294;SDS011;38243;53.212;6.574;2023-02-28T13:01:35;1.80;;;0.80;;
52294;SDS011;38243;53.212;6.574;2023-02-28T13:09:39;2.25;;;1.00;;
52294;SDS011;38243;53.212;6.574;2023-02-28T13:12:15;2.70;;;1.07;;
52294;SDS011;38243;53.212;6.574;2023-02-28T13:14:41;2.00;;;1.00;;
52294;SDS011;38243;53.212;6.574;2023-02-28T13:20:19;3.10;;;0.90;;
52294;SDS011;38243;53.212;6.574;2023-02-28T13:25:01;1.60;;;1.20;;
52294;SDS011;38243;53.212;6.574;2023-02-28T13:27:35;3.08;;;1.10;;
52294;SDS011;38243;53.212;6.574;2023-02-28T13:38:36;2.40;;;0.90;;
52294;SDS011;38243;53.212;6.574;2023-02-28T13:49:31;1.85;;;1.00;;
52294;SDS011;38243;53.212;6.574;2023-02-28T13:57:30;3.28;;;1.02;;
52294;SDS011;38243;53.212;6.574;2023-02-28T14:03:05;3.97;;;1.05;;
52294;SDS011;38243;53.212;6.574;2023-02-28T14:05:41;1.73;;;0.80;;
52294;SDS011;38243;53.212;6.574;2023-02-28T14:08:11;2.83;;;0.93;;
52294;SDS011;38243;53.212;6.574;2023-02-28T14:10:48;3.35;;;1.08;;
52294;SDS011;38243;53.212;6.574;2023-02-28T14:16:02;2.80;;;0.80;;
52294;SDS011;38243;53.212;6.574;2023-02-28T14:18:32;2.07;;;0.90;;
52294;SDS011;38243;53.212;6.574;2023-02-28T14:29:08;2.75;;;0.80;;
52294;SDS011;38243;53.212;6.574;2023-02-28T14:31:54;2.10;;;0.80;;
52294;SDS011;38243;53.212;6.574;2023-02-28T14:34:37;2.33;;;0.70;;
52294;SDS011;38243;53.212;6.574;2023-02-28T14:37:15;2.58;;;0.90;;
52294;SDS011;38243;53.212;6.574;2023-02-28T14:39:45;2.57;;;0.87;;
52294;SDS011;38243;53.212;6.574;2023-02-28T14:44:54;3.35;;;0.77;;
52294;SDS011;38243;53.212;6.574;2023-02-28T14:47:21;4.35;;;0.80;;
52294;SDS011;38243;53.212;6.574;2023-02-28T14:49:52;3.30;;;0.80;;
52294;SDS011;38243;53.212;6.574;2023-02-28T14:52:20;5.40;;;0.90;;
52294;SDS011;38243;53.212;6.574;2023-02-28T14:57:59;2.03;;;0.80;;
52294;SDS011;38243;53.212;6.574;2023-02-28T15:00:32;2.17;;;0.80;;
52294;SDS011;38243;53.212;6.574;2023-02-28T15:03:23;2.75;;;0.93;;
52294;SDS011;38243;53.212;6.574;2023-02-28T15:05:55;2.35;;;0.95;;
52294;SDS011;38243;53.212;6.574;2023-02-28T15:08:22;3.33;;;0.95;;
52294;SDS011;38243;53.212;6.574;2023-02-28T15:13:42;2.92;;;1.30;;
52294;SDS011;38243;53.212;6.574;2023-02-28T15:16:19;2.17;;;1.20;;
52294;SDS011;38243;53.212;6.574;2023-02-28T15:21:23;1.90;;;1.05;;
52294;SDS011;38243;53.212;6.574;2023-02-28T15:23:51;2.60;;;1.02;;
52294;SDS011;38243;53.212;6.574;2023-02-28T15:26:21;1.80;;;1.00;;
52294;SDS011;38243;53.212;6.574;2023-02-28T15:29:00;1.63;;;0.93;;
52294;SDS011;38243;53.212;6.574;2023-02-28T15:31:39;2.57;;;1.20;;
52294;SDS011;38243;53.212;6.574;2023-02-28T15:34:12;3.03;;;1.35;;
52294;SDS011;38243;53.212;6.574;2023-02-28T15:36:47;2.13;;;1.20;;
52294;SDS011;38243;53.212;6.574;2023-02-28T15:39:21;3.22;;;1.38;;
52294;SDS011;38243;53.212;6.574;2023-02-28T15:42:10;2.17;;;1.42;;
52294;SDS011;38243;53.212;6.574;2023-02-28T15:44:37;2.70;;;1.50;;
52294;SDS011;38243;53.212;6.574;2023-02-28T15:47:04;2.05;;;1.50;;
52294;SDS011;38243;53.212;6.574;2023-02-28T15:49:39;1.70;;;1.30;;
52294;SDS011;38243;53.212;6.574;2023-02-28T15:52:28;2.50;;;1.70;;
52294;SDS011;38243;53.212;6.574;2023-02-28T15:54:59;2.75;;;2.10;;
52294;SDS011;38243;53.212;6.574;2023-02-28T15:57:38;2.50;;;1.90;;
52294;SDS011;38243;53.212;6.574;2023-02-28T16:00:06;2.22;;;1.73;;
52294;SDS011;38243;53.212;6.574;2023-02-28T16:02:39;2.60;;;1.80;;
52294;SDS011;38243;53.212;6.574;2023-02-28T16:07:40;3.47;;;1.90;;
52294;SDS011;38243;53.212;6.574;2023-02-28T16:10:09;3.30;;;2.13;;
52294;SDS011;38243;53.212;6.574;2023-02-28T16:12:37;3.17;;;1.90;;
52294;SDS011;38243;53.212;6.574;2023-02-28T16:15:23;3.88;;;1.88;;
52294;SDS011;38243;53.212;6.574;2023-02-28T16:17:53;3.15;;;1.95;;
52294;SDS011;38243;53.212;6.574;2023-02-28T16:20:24;3.95;;;2.08;;
52294;SDS011;38243;53.212;6.574;2023-02-28T16:22:52;2.60;;;1.80;;
52294;SDS011;38243;53.212;6.574;2023-02-28T16:25:20;3.60;;;1.70;;
52294;SDS011;38243;53.212;6.574;2023-02-28T16:27:58;4.00;;;2.97;;
52294;SDS011;38243;53.212;6.574;2023-02-28T16:30:26;4.07;;;1.63;;
52294;SDS011;38243;53.212;6.574;2023-02-28T16:32:56;2.15;;;1.80;;
52294;SDS011;38243;53.212;6.574;2023-02-28T16:35:22;3.63;;;1.70;;
52294;SDS011;38243;53.212;6.574;2023-02-28T16:37:52;2.42;;;1.60;;
52294;SDS011;38243;53.212;6.574;2023-02-28T16:40:22;2.70;;;1.40;;
52294;SDS011;38243;53.212;6.574;2023-02-28T16:42:51;3.23;;;1.93;;
52294;SDS011;38243;53.212;6.574;2023-02-28T16:45:23;2.67;;;1.80;;
52294;SDS011;38243;53.212;6.574;2023-02-28T16:47:53;2.57;;;1.60;;
52294;SDS011;38243;53.212;6.574;2023-02-28T16:52:50;2.03;;;1.60;;
52294;SDS011;38243;53.212;6.574;2023-02-28T16:55:22;2.50;;;1.50;;
52294;SDS011;38243;53.212;6.574;2023-02-28T16:57:51;3.10;;;1.50;;
52294;SDS011;38243;53.212;6.574;2023-02-28T17:00:19;1.40;;;1.10;;
52294;SDS011;38243;53.212;6.574;2023-02-28T17:02:44;2.10;;;0.80;;
52294;SDS011;38243;53.212;6.574;2023-02-28T17:05:11;2.03;;;0.83;;
52294;SDS011;38243;53.212;6.574;2023-02-28T17:07:37;1.05;;;0.93;;
52294;SDS011;38243;53.212;6.574;2023-02-28T17:10:26;1.20;;;0.80;;
52294;SDS011;38243;53.212;6.574;2023-02-28T17:12:51;1.50;;;0.80;;
52294;SDS011;38243;53.212;6.574;2023-02-28T17:15:18;1.30;;;0.77;;
52294;SDS011;38243;53.212;6.574;2023-02-28T17:17:45;1.55;;;1.00;;
52294;SDS011;38243;53.212;6.574;2023-02-28T17:20:16;3.08;;;0.90;;
52294;SDS011;38243;53.212;6.574;2023-02-28T17:22:44;1.73;;;0.60;;
52294;SDS011;38243;53.212;6.574;2023-02-28T17:25:10;1.93;;;0.80;;
52294;SDS011;38243;53.212;6.574;2023-02-28T17:27:36;1.27;;;0.80;;
52294;SDS011;38243;53.212;6.574;2023-02-28T17:30:04;1.92;;;0.82;;
52294;SDS011;38243;53.212;6.574;2023-02-28T17:32:42;1.70;;;0.60;;
52294;SDS011;38243;53.212;6.574;2023-02-28T17:35:08;1.70;;;0.67;;
52294;SDS011;38243;53.212;6.574;2023-02-28T17:37:34;0.68;;;0.60;;
52294;SDS011;38243;53.212;6.574;2023-02-28T17:40:00;2.80;;;0.70;;
52294;SDS011;38243;53.212;6.574;2023-02-28T17:42:26;1.00;;;0.70;;